sensor_id;sensor_type;location;lat;lon;timestamp;P1;durP1;ratioP1;P2;durP2;ratioP2
10596;SDS011;5346;48.766;8.674;2024-01-30T00:00:32;1.70;;;1.43;;
10596;SDS011;5346;48.766;8.674;2024-01-30T00:03:06;1.60;;;1.30;;
10596;SDS011;5346;48.766;8.674;2024-01-30T00:05:36;2.60;;;1.50;;
10596;SDS011;5346;48.766;8.674;2024-01-30T00:08:20;3.23;;;1.67;;
10596;SDS011;5346;48.766;8.674;2024-01-30T00:10:55;2.10;;;1.60;;
10596;SDS011;5346;48.766;8.674;2024-01-30T00:13:29;2.40;;;1.40;;
10596;SDS011;5346;48.766;8.674;2024-01-30T00:15:58;1.83;;;1.30;;
10596;SDS011;5346;48.766;8.674;2024-01-30T00:18:33;4.37;;;1.53;;
10596;SDS011;5346;48.766;8.674;2024-01-30T00:21:08;2.33;;;1.60;;
10596;SDS011;5346;48.766;8.674;2024-01-30T00:23:42;4.07;;;1.77;;
10596;SDS011;5346;48.766;8.674;2024-01-30T00:26:17;2.83;;;1.50;;
10596;SDS011;5346;48.766;8.674;2024-01-30T00:28:50;2.87;;;1.33;;
10596;SDS011;5346;48.766;8.674;2024-01-30T00:31:20;2.63;;;1.60;;
10596;SDS011;5346;48.766;8.674;2024-01-30T00:33:55;3.63;;;1.43;;
10596;SDS011;5346;48.766;8.674;2024-01-30T00:36:22;3.67;;;1.70;;
10596;SDS011;5346;48.766;8.674;2024-01-30T00:38:57;2.10;;;1.50;;
10596;SDS011;5346;48.766;8.674;2024-01-30T00:41:38;2.10;;;1.47;;
10596;SDS011;5346;48.766;8.674;2024-01-30T00:44:05;2.33;;;1.50;;
10596;SDS011;5346;48.766;8.674;2024-01-30T00:46:39;3.33;;;1.60;;
10596;SDS011;5346;48.766;8.674;2024-01-30T00:49:07;1.70;;;1.50;;
10596;SDS011;5346;48.766;8.674;2024-01-30T00:51:44;1.90;;;1.43;;
10596;SDS011;5346;48.766;8.674;2024-01-30T00:54:18;1.90;;;1.50;;
10596;SDS011;5346;48.766;8.674;2024-01-30T00:56:45;1.53;;;1.30;;
10596;SDS011;5346;48.766;8.674;2024-01-30T00:59:16;3.10;;;1.60;;
10596;SDS011;5346;48.766;8.674;2024-01-30T01:01:51;1.50;;;1.40;;
10596;SDS011;5346;48.766;8.674;2024-01-30T01:04:19;2.00;;;1.30;;
10596;SDS011;5346;48.766;8.674;2024-01-30T01:06:54;3.33;;;1.50;;
10596;SDS011;5346;48.766;8.674;2024-01-30T01:09:23;2.00;;;1.80;;
10596;SDS011;5346;48.766;8.674;2024-01-30T01:11:58;3.03;;;1.47;;
10596;SDS011;5346;48.766;8.674;2024-01-30T01:14:33;2.10;;;1.60;;
10596;SDS011;5346;48.766;8.674;2024-01-30T01:17:01;3.57;;;1.80;;
10596;SDS011;5346;48.766;8.674;2024-01-30T01:19:35;2.37;;;1.50;;
10596;SDS011;5346;48.766;8.674;2024-01-30T01:22:09;1.70;;;1.30;;
10596;SDS011;5346;48.766;8.674;2024-01-30T01:24:44;2.50;;;1.40;;
10596;SDS011;5346;48.766;8.674;2024-01-30T01:27:11;5.33;;;1.70;;
10596;SDS011;5346;48.766;8.674;2024-01-30T01:29:45;5.23;;;1.70;;
10596;SDS011;5346;48.766;8.674;2024-01-30T01:32:14;4.00;;;1.57;;
10596;SDS011;5346;48.766;8.674;2024-01-30T01:34:49;3.90;;;1.57;;
10596;SDS011;5346;48.766;8.674;2024-01-30T01:37:25;1.97;;;1.40;;
10596;SDS011;5346;48.766;8.674;2024-01-30T01:40:00;2.37;;;1.50;;
10596;SDS011;5346;48.766;8.674;2024-01-30T01:42:35;3.33;;;1.50;;
10596;SDS011;5346;48.766;8.674;2024-01-30T01:45:09;2.63;;;1.43;;
10596;SDS011;5346;48.766;8.674;2024-01-30T01:47:42;3.07;;;1.53;;
10596;SDS011;5346;48.766;8.674;2024-01-30T01:50:20;1.70;;;1.30;;
10596;SDS011;5346;48.766;8.674;2024-01-30T01:52:56;3.30;;;1.40;;
10596;SDS011;5346;48.766;8.674;2024-01-30T01:55:32;1.90;;;1.23;;
10596;SDS011;5346;48.766;8.674;2024-01-30T01:58:06;6.03;;;1.70;;
10596;SDS011;5346;48.766;8.674;2024-01-30T02:00:42;3.47;;;1.50;;
10596;SDS011;5346;48.766;8.674;2024-01-30T02:03:12;2.40;;;1.70;;
10596;SDS011;5346;48.766;8.674;2024-01-30T02:05:51;2.37;;;1.70;;
10596;SDS011;5346;48.766;8.674;2024-01-30T02:08:22;2.60;;;1.70;;
10596;SDS011;5346;48.766;8.674;2024-01-30T02:11:04;1.87;;;1.60;;
10596;SDS011;5346;48.766;8.674;2024-01-30T02:13:32;1.70;;;1.30;;
10596;SDS011;5346;48.766;8.674;2024-01-30T02:16:07;2.10;;;1.60;;
10596;SDS011;5346;48.766;8.674;2024-01-30T02:18:35;1.90;;;1.60;;
10596;SDS011;5346;48.766;8.674;2024-01-30T02:21:18;2.33;;;1.47;;
10596;SDS011;5346;48.766;8.674;2024-01-30T02:23:46;2.47;;;1.30;;
10596;SDS011;5346;48.766;8.674;2024-01-30T02:26:22;2.67;;;1.57;;
10596;SDS011;5346;48.766;8.674;2024-01-30T02:28:50;2.20;;;1.50;;
10596;SDS011;5346;48.766;8.674;2024-01-30T02:31:24;4.00;;;1.90;;
10596;SDS011;5346;48.766;8.674;2024-01-30T02:33:53;4.20;;;1.67;;
10596;SDS011;5346;48.766;8.674;2024-01-30T02:36:27;1.77;;;1.47;;
10596;SDS011;5346;48.766;8.674;2024-01-30T02:39:02;2.20;;;1.40;;
10596;SDS011;5346;48.766;8.674;2024-01-30T02:41:37;4.53;;;1.60;;
10596;SDS011;5346;48.766;8.674;2024-01-30T02:44:11;3.03;;;2.00;;
10596;SDS011;5346;48.766;8.674;2024-01-30T02:46:38;2.97;;;1.53;;
10596;SDS011;5346;48.766;8.674;2024-01-30T02:49:13;2.83;;;1.57;;
10596;SDS011;5346;48.766;8.674;2024-01-30T02:51:41;4.40;;;1.50;;
10596;SDS011;5346;48.766;8.674;2024-01-30T02:54:15;2.40;;;1.50;;
10596;SDS011;5346;48.766;8.674;2024-01-30T02:56:49;3.33;;;1.43;;
10596;SDS011;5346;48.766;8.674;2024-01-30T02:59:23;4.83;;;1.73;;
10596;SDS011;5346;48.766;8.674;2024-01-30T03:01:57;2.20;;;1.23;;
10596;SDS011;5346;48.766;8.674;2024-01-30T03:04:32;2.73;;;1.67;;
10596;SDS011;5346;48.766;8.674;2024-01-30T03:07:07;2.23;;;1.40;;
10596;SDS011;5346;48.766;8.674;2024-01-30T03:09:42;3.40;;;1.60;;
10596;SDS011;5346;48.766;8.674;2024-01-30T03:12:16;3.70;;;1.43;;
10596;SDS011;5346;48.766;8.674;2024-01-30T03:14:50;3.10;;;1.70;;
10596;SDS011;5346;48.766;8.674;2024-01-30T03:17:24;3.10;;;1.50;;
10596;SDS011;5346;48.766;8.674;2024-01-30T03:19:59;3.40;;;1.47;;
10596;SDS011;5346;48.766;8.674;2024-01-30T03:22:34;2.43;;;1.40;;
10596;SDS011;5346;48.766;8.674;2024-01-30T03:25:07;2.17;;;1.40;;
10596;SDS011;5346;48.766;8.674;2024-01-30T03:27:42;2.70;;;1.77;;
10596;SDS011;5346;48.766;8.674;2024-01-30T03:30:12;3.17;;;1.60;;
10596;SDS011;5346;48.766;8.674;2024-01-30T03:32:45;3.00;;;1.53;;
10596;SDS011;5346;48.766;8.674;2024-01-30T03:35:13;1.97;;;1.40;;
10596;SDS011;5346;48.766;8.674;2024-01-30T03:37:47;2.50;;;1.60;;
10596;SDS011;5346;48.766;8.674;2024-01-30T03:40:24;2.20;;;1.37;;
10596;SDS011;5346;48.766;8.674;2024-01-30T03:42:51;2.00;;;1.43;;
10596;SDS011;5346;48.766;8.674;2024-01-30T03:45:26;3.70;;;1.50;;
10596;SDS011;5346;48.766;8.674;2024-01-30T03:47:53;1.97;;;1.60;;
10596;SDS011;5346;48.766;8.674;2024-01-30T03:50:21;1.70;;;1.60;;
10596;SDS011;5346;48.766;8.674;2024-01-30T03:53:03;2.30;;;1.37;;
10596;SDS011;5346;48.766;8.674;2024-01-30T03:55:30;2.00;;;1.33;;
10596;SDS011;5346;48.766;8.674;2024-01-30T03:58:04;2.20;;;1.67;;
10596;SDS011;5346;48.766;8.674;2024-01-30T04:00:32;2.63;;;1.80;;
10596;SDS011;5346;48.766;8.674;2024-01-30T04:03:07;3.63;;;1.70;;
10596;SDS011;5346;48.766;8.674;2024-01-30T04:05:41;3.37;;;1.67;;
10596;SDS011;5346;48.766;8.674;2024-01-30T04:08:22;1.87;;;1.70;;
10596;SDS011;5346;48.766;8.674;2024-01-30T04:11:05;3.20;;;1.50;;
10596;SDS011;5346;48.766;8.674;2024-01-30T04:13:40;1.90;;;1.70;;
10596;SDS011;5346;48.766;8.674;2024-01-30T04:16:18;1.80;;;1.40;;
10596;SDS011;5346;48.766;8.674;2024-01-30T04:18:55;3.20;;;1.70;;
10596;SDS011;5346;48.766;8.674;2024-01-30T04:21:24;3.07;;;1.63;;
10596;SDS011;5346;48.766;8.674;2024-01-30T04:23:59;4.07;;;1.50;;
10596;SDS011;5346;48.766;8.674;2024-01-30T04:26:26;2.33;;;1.53;;
10596;SDS011;5346;48.766;8.674;2024-01-30T04:29:00;3.10;;;1.50;;
10596;SDS011;5346;48.766;8.674;2024-01-30T04:31:29;2.80;;;1.67;;
10596;SDS011;5346;48.766;8.674;2024-01-30T04:34:04;3.00;;;1.50;;
10596;SDS011;5346;48.766;8.674;2024-01-30T04:36:38;3.10;;;1.40;;
10596;SDS011;5346;48.766;8.674;2024-01-30T04:39:12;2.07;;;1.30;;
10596;SDS011;5346;48.766;8.674;2024-01-30T04:41:40;2.33;;;1.40;;
10596;SDS011;5346;48.766;8.674;2024-01-30T04:44:08;2.00;;;1.50;;
10596;SDS011;5346;48.766;8.674;2024-01-30T04:46:43;7.37;;;1.80;;
10596;SDS011;5346;48.766;8.674;2024-01-30T04:49:10;2.67;;;1.70;;
10596;SDS011;5346;48.766;8.674;2024-01-30T04:51:45;2.20;;;1.53;;
10596;SDS011;5346;48.766;8.674;2024-01-30T04:54:12;3.50;;;1.90;;
10596;SDS011;5346;48.766;8.674;2024-01-30T04:56:46;2.07;;;1.87;;
10596;SDS011;5346;48.766;8.674;2024-01-30T04:59:20;1.50;;;1.37;;
10596;SDS011;5346;48.766;8.674;2024-01-30T05:01:54;2.37;;;1.30;;
10596;SDS011;5346;48.766;8.674;2024-01-30T05:04:29;3.37;;;1.47;;
10596;SDS011;5346;48.766;8.674;2024-01-30T05:06:57;2.33;;;1.50;;
10596;SDS011;5346;48.766;8.674;2024-01-30T05:09:27;2.73;;;1.60;;
10596;SDS011;5346;48.766;8.674;2024-01-30T05:12:08;3.30;;;1.60;;
10596;SDS011;5346;48.766;8.674;2024-01-30T05:14:36;2.53;;;1.47;;
10596;SDS011;5346;48.766;8.674;2024-01-30T05:17:10;3.60;;;1.60;;
10596;SDS011;5346;48.766;8.674;2024-01-30T05:19:46;3.30;;;1.40;;
10596;SDS011;5346;48.766;8.674;2024-01-30T05:22:21;3.13;;;1.60;;
10596;SDS011;5346;48.766;8.674;2024-01-30T05:24:49;2.30;;;1.40;;
10596;SDS011;5346;48.766;8.674;2024-01-30T05:27:23;3.03;;;1.63;;
10596;SDS011;5346;48.766;8.674;2024-01-30T05:29:51;3.00;;;1.57;;
10596;SDS011;5346;48.766;8.674;2024-01-30T05:32:25;2.37;;;1.60;;
10596;SDS011;5346;48.766;8.674;2024-01-30T05:34:52;1.67;;;1.30;;
10596;SDS011;5346;48.766;8.674;2024-01-30T05:37:28;1.63;;;1.27;;
10596;SDS011;5346;48.766;8.674;2024-01-30T05:39:55;3.97;;;1.57;;
10596;SDS011;5346;48.766;8.674;2024-01-30T05:42:30;2.07;;;1.53;;
10596;SDS011;5346;48.766;8.674;2024-01-30T05:45:05;1.70;;;1.40;;
10596;SDS011;5346;48.766;8.674;2024-01-30T05:47:39;2.27;;;1.40;;
10596;SDS011;5346;48.766;8.674;2024-01-30T05:50:06;3.20;;;1.77;;
10596;SDS011;5346;48.766;8.674;2024-01-30T05:52:41;2.63;;;1.50;;
10596;SDS011;5346;48.766;8.674;2024-01-30T05:55:15;2.20;;;1.63;;
10596;SDS011;5346;48.766;8.674;2024-01-30T05:57:49;2.73;;;1.70;;
10596;SDS011;5346;48.766;8.674;2024-01-30T06:00:18;1.43;;;1.27;;
10596;SDS011;5346;48.766;8.674;2024-01-30T06:02:52;1.87;;;1.30;;
10596;SDS011;5346;48.766;8.674;2024-01-30T06:05:22;2.57;;;1.60;;
10596;SDS011;5346;48.766;8.674;2024-01-30T06:08:00;2.87;;;1.70;;
10596;SDS011;5346;48.766;8.674;2024-01-30T06:10:29;2.50;;;1.50;;
10596;SDS011;5346;48.766;8.674;2024-01-30T06:13:09;3.43;;;1.70;;
10596;SDS011;5346;48.766;8.674;2024-01-30T06:15:37;4.13;;;1.60;;
10596;SDS011;5346;48.766;8.674;2024-01-30T06:18:12;2.50;;;1.60;;
10596;SDS011;5346;48.766;8.674;2024-01-30T06:20:39;2.50;;;1.60;;
10596;SDS011;5346;48.766;8.674;2024-01-30T06:23:13;2.37;;;1.70;;
10596;SDS011;5346;48.766;8.674;2024-01-30T06:25:41;2.60;;;1.57;;
10596;SDS011;5346;48.766;8.674;2024-01-30T06:28:17;4.10;;;1.60;;
10596;SDS011;5346;48.766;8.674;2024-01-30T06:30:46;1.93;;;1.60;;
10596;SDS011;5346;48.766;8.674;2024-01-30T06:33:20;2.07;;;1.63;;
10596;SDS011;5346;48.766;8.674;2024-01-30T06:35:48;1.73;;;1.47;;
10596;SDS011;5346;48.766;8.674;2024-01-30T06:38:21;2.07;;;1.50;;
10596;SDS011;5346;48.766;8.674;2024-01-30T06:40:56;2.60;;;1.83;;
10596;SDS011;5346;48.766;8.674;2024-01-30T06:43:23;1.73;;;1.40;;
10596;SDS011;5346;48.766;8.674;2024-01-30T06:45:57;3.40;;;1.50;;
10596;SDS011;5346;48.766;8.674;2024-01-30T06:48:32;2.27;;;1.70;;
10596;SDS011;5346;48.766;8.674;2024-01-30T06:50:59;2.40;;;1.77;;
10596;SDS011;5346;48.766;8.674;2024-01-30T06:53:34;2.40;;;1.40;;
10596;SDS011;5346;48.766;8.674;2024-01-30T06:56:07;2.47;;;1.67;;
10596;SDS011;5346;48.766;8.674;2024-01-30T06:58:41;2.63;;;1.50;;
10596;SDS011;5346;48.766;8.674;2024-01-30T07:01:09;3.33;;;1.70;;
10596;SDS011;5346;48.766;8.674;2024-01-30T07:03:46;2.90;;;1.63;;
10596;SDS011;5346;48.766;8.674;2024-01-30T07:06:15;2.73;;;1.77;;
10596;SDS011;5346;48.766;8.674;2024-01-30T07:08:56;2.37;;;1.30;;
10596;SDS011;5346;48.766;8.674;2024-01-30T07:11:38;1.77;;;1.30;;
10596;SDS011;5346;48.766;8.674;2024-01-30T07:14:12;2.60;;;1.70;;
10596;SDS011;5346;48.766;8.674;2024-01-30T07:16:39;2.57;;;1.70;;
10596;SDS011;5346;48.766;8.674;2024-01-30T07:19:14;3.13;;;1.60;;
10596;SDS011;5346;48.766;8.674;2024-01-30T07:21:48;2.97;;;1.97;;
10596;SDS011;5346;48.766;8.674;2024-01-30T07:24:22;2.93;;;1.70;;
10596;SDS011;5346;48.766;8.674;2024-01-30T07:26:55;2.30;;;1.27;;
10596;SDS011;5346;48.766;8.674;2024-01-30T07:29:31;1.80;;;1.40;;
10596;SDS011;5346;48.766;8.674;2024-01-30T07:32:06;2.20;;;1.60;;
10596;SDS011;5346;48.766;8.674;2024-01-30T07:34:40;2.30;;;1.50;;
10596;SDS011;5346;48.766;8.674;2024-01-30T07:37:32;3.90;;;1.70;;
10596;SDS011;5346;48.766;8.674;2024-01-30T07:40:06;3.40;;;1.73;;
10596;SDS011;5346;48.766;8.674;2024-01-30T07:42:44;2.43;;;1.33;;
10596;SDS011;5346;48.766;8.674;2024-01-30T07:45:18;2.07;;;1.53;;
10596;SDS011;5346;48.766;8.674;2024-01-30T07:47:50;2.00;;;1.63;;
10596;SDS011;5346;48.766;8.674;2024-01-30T07:50:25;2.17;;;1.70;;
10596;SDS011;5346;48.766;8.674;2024-01-30T07:52:53;2.50;;;1.83;;
10596;SDS011;5346;48.766;8.674;2024-01-30T07:55:32;1.90;;;1.47;;
10596;SDS011;5346;48.766;8.674;2024-01-30T07:57:59;5.40;;;2.07;;
10596;SDS011;5346;48.766;8.674;2024-01-30T08:00:34;2.03;;;1.60;;
10596;SDS011;5346;48.766;8.674;2024-01-30T08:03:02;2.57;;;1.53;;
10596;SDS011;5346;48.766;8.674;2024-01-30T08:05:43;1.73;;;1.50;;
10596;SDS011;5346;48.766;8.674;2024-01-30T08:08:17;2.20;;;1.47;;
10596;SDS011;5346;48.766;8.674;2024-01-30T08:10:53;3.97;;;1.70;;
10596;SDS011;5346;48.766;8.674;2024-01-30T08:13:30;4.07;;;1.63;;
10596;SDS011;5346;48.766;8.674;2024-01-30T08:16:06;2.40;;;1.50;;
10596;SDS011;5346;48.766;8.674;2024-01-30T08:18:39;2.72;;;2.00;;
10596;SDS011;5346;48.766;8.674;2024-01-30T08:21:14;2.28;;;1.65;;
10596;SDS011;5346;48.766;8.674;2024-01-30T08:23:41;1.87;;;1.70;;
10596;SDS011;5346;48.766;8.674;2024-01-30T08:26:17;2.28;;;1.60;;
10596;SDS011;5346;48.766;8.674;2024-01-30T08:28:51;2.40;;;1.60;;
10596;SDS011;5346;48.766;8.674;2024-01-30T08:31:27;2.85;;;1.83;;
10596;SDS011;5346;48.766;8.674;2024-01-30T08:34:01;3.53;;;1.60;;
10596;SDS011;5346;48.766;8.674;2024-01-30T08:36:35;1.98;;;1.50;;
10596;SDS011;5346;48.766;8.674;2024-01-30T08:39:10;2.67;;;1.60;;
10596;SDS011;5346;48.766;8.674;2024-01-30T08:41:45;2.20;;;1.40;;
10596;SDS011;5346;48.766;8.674;2024-01-30T08:44:13;3.67;;;1.95;;
10596;SDS011;5346;48.766;8.674;2024-01-30T08:46:47;7.32;;;1.77;;
10596;SDS011;5346;48.766;8.674;2024-01-30T08:49:16;2.80;;;1.60;;
10596;SDS011;5346;48.766;8.674;2024-01-30T08:51:51;2.90;;;1.70;;
10596;SDS011;5346;48.766;8.674;2024-01-30T08:54:19;2.55;;;1.60;;
10596;SDS011;5346;48.766;8.674;2024-01-30T08:56:53;2.33;;;1.65;;
10596;SDS011;5346;48.766;8.674;2024-01-30T08:59:31;3.17;;;1.88;;
10596;SDS011;5346;48.766;8.674;2024-01-30T09:02:07;2.22;;;1.58;;
10596;SDS011;5346;48.766;8.674;2024-01-30T09:04:38;2.88;;;1.80;;
10596;SDS011;5346;48.766;8.674;2024-01-30T09:07:06;2.42;;;1.70;;
10596;SDS011;5346;48.766;8.674;2024-01-30T09:09:42;3.42;;;1.58;;
10596;SDS011;5346;48.766;8.674;2024-01-30T09:12:22;2.10;;;1.50;;
10596;SDS011;5346;48.766;8.674;2024-01-30T09:14:57;2.28;;;1.63;;
10596;SDS011;5346;48.766;8.674;2024-01-30T09:17:27;2.22;;;1.48;;
10596;SDS011;5346;48.766;8.674;2024-01-30T09:20:01;3.25;;;1.80;;
10596;SDS011;5346;48.766;8.674;2024-01-30T09:22:29;1.67;;;1.58;;
10596;SDS011;5346;48.766;8.674;2024-01-30T09:25:03;3.13;;;1.70;;
10596;SDS011;5346;48.766;8.674;2024-01-30T09:27:37;2.88;;;1.55;;
10596;SDS011;5346;48.766;8.674;2024-01-30T09:30:11;1.85;;;1.52;;
10596;SDS011;5346;48.766;8.674;2024-01-30T09:32:41;3.13;;;1.70;;
10596;SDS011;5346;48.766;8.674;2024-01-30T09:35:16;3.90;;;1.80;;
10596;SDS011;5346;48.766;8.674;2024-01-30T09:37:43;2.08;;;1.50;;
10596;SDS011;5346;48.766;8.674;2024-01-30T09:40:24;1.85;;;1.65;;
10596;SDS011;5346;48.766;8.674;2024-01-30T09:42:59;2.15;;;1.73;;
10596;SDS011;5346;48.766;8.674;2024-01-30T09:45:33;2.97;;;2.08;;
10596;SDS011;5346;48.766;8.674;2024-01-30T09:48:02;2.63;;;1.60;;
10596;SDS011;5346;48.766;8.674;2024-01-30T09:50:31;2.67;;;1.63;;
10596;SDS011;5346;48.766;8.674;2024-01-30T09:53:09;3.38;;;1.70;;
10596;SDS011;5346;48.766;8.674;2024-01-30T09:55:37;2.88;;;1.75;;
10596;SDS011;5346;48.766;8.674;2024-01-30T09:58:23;2.45;;;1.60;;
10596;SDS011;5346;48.766;8.674;2024-01-30T10:00:52;3.90;;;1.83;;
10596;SDS011;5346;48.766;8.674;2024-01-30T10:03:27;2.58;;;1.85;;
10596;SDS011;5346;48.766;8.674;2024-01-30T10:05:55;3.15;;;1.90;;
10596;SDS011;5346;48.766;8.674;2024-01-30T10:08:30;3.05;;;1.90;;
10596;SDS011;5346;48.766;8.674;2024-01-30T10:11:04;2.83;;;1.52;;
10596;SDS011;5346;48.766;8.674;2024-01-30T10:13:40;4.68;;;2.05;;
10596;SDS011;5346;48.766;8.674;2024-01-30T10:16:14;2.55;;;1.60;;
10596;SDS011;5346;48.766;8.674;2024-01-30T10:18:50;3.50;;;1.60;;
10596;SDS011;5346;48.766;8.674;2024-01-30T10:21:18;2.20;;;1.50;;
10596;SDS011;5346;48.766;8.674;2024-01-30T10:23:54;1.65;;;1.40;;
10596;SDS011;5346;48.766;8.674;2024-01-30T10:26:28;4.45;;;1.90;;
10596;SDS011;5346;48.766;8.674;2024-01-30T10:29:02;2.35;;;1.60;;
10596;SDS011;5346;48.766;8.674;2024-01-30T10:31:36;3.90;;;1.70;;
10596;SDS011;5346;48.766;8.674;2024-01-30T10:34:04;1.90;;;1.70;;
10596;SDS011;5346;48.766;8.674;2024-01-30T10:36:48;2.33;;;1.67;;
10596;SDS011;5346;48.766;8.674;2024-01-30T10:39:29;1.70;;;1.25;;
10596;SDS011;5346;48.766;8.674;2024-01-30T10:42:05;3.63;;;1.52;;
10596;SDS011;5346;48.766;8.674;2024-01-30T10:44:44;2.55;;;1.50;;
10596;SDS011;5346;48.766;8.674;2024-01-30T10:47:18;2.60;;;1.85;;
10596;SDS011;5346;48.766;8.674;2024-01-30T10:49:59;3.78;;;1.95;;
10596;SDS011;5346;48.766;8.674;2024-01-30T10:52:34;1.90;;;1.50;;
10596;SDS011;5346;48.766;8.674;2024-01-30T10:55:09;2.05;;;1.48;;
10596;SDS011;5346;48.766;8.674;2024-01-30T10:57:37;2.85;;;1.48;;
10596;SDS011;5346;48.766;8.674;2024-01-30T11:00:13;4.45;;;1.70;;
10596;SDS011;5346;48.766;8.674;2024-01-30T11:02:43;2.03;;;1.55;;
10596;SDS011;5346;48.766;8.674;2024-01-30T11:05:25;2.20;;;1.65;;
10596;SDS011;5346;48.766;8.674;2024-01-30T11:07:59;3.45;;;1.95;;
10596;SDS011;5346;48.766;8.674;2024-01-30T11:10:48;2.72;;;1.80;;
10596;SDS011;5346;48.766;8.674;2024-01-30T11:13:22;9.95;;;1.70;;
10596;SDS011;5346;48.766;8.674;2024-01-30T11:16:02;1.75;;;1.63;;
10596;SDS011;5346;48.766;8.674;2024-01-30T11:18:38;2.25;;;1.80;;
10596;SDS011;5346;48.766;8.674;2024-01-30T11:21:05;2.50;;;1.90;;
10596;SDS011;5346;48.766;8.674;2024-01-30T11:23:40;2.80;;;1.60;;
10596;SDS011;5346;48.766;8.674;2024-01-30T11:26:12;3.22;;;1.80;;
10596;SDS011;5346;48.766;8.674;2024-01-30T11:28:52;4.50;;;1.80;;
10596;SDS011;5346;48.766;8.674;2024-01-30T11:31:20;2.08;;;1.65;;
10596;SDS011;5346;48.766;8.674;2024-01-30T11:33:55;2.65;;;1.63;;
10596;SDS011;5346;48.766;8.674;2024-01-30T11:36:25;3.00;;;1.70;;
10596;SDS011;5346;48.766;8.674;2024-01-30T11:39:00;6.20;;;1.80;;
10596;SDS011;5346;48.766;8.674;2024-01-30T11:41:28;3.42;;;2.15;;
10596;SDS011;5346;48.766;8.674;2024-01-30T11:44:03;2.83;;;1.85;;
10596;SDS011;5346;48.766;8.674;2024-01-30T11:46:31;2.00;;;1.80;;
10596;SDS011;5346;48.766;8.674;2024-01-30T11:49:08;4.20;;;1.98;;
10596;SDS011;5346;48.766;8.674;2024-01-30T11:51:36;2.85;;;1.88;;
10596;SDS011;5346;48.766;8.674;2024-01-30T11:54:11;3.08;;;2.08;;
10596;SDS011;5346;48.766;8.674;2024-01-30T11:56:38;2.38;;;1.85;;
10596;SDS011;5346;48.766;8.674;2024-01-30T11:59:13;2.45;;;1.60;;
10596;SDS011;5346;48.766;8.674;2024-01-30T12:01:48;3.40;;;2.05;;
10596;SDS011;5346;48.766;8.674;2024-01-30T12:04:27;2.42;;;1.73;;
10596;SDS011;5346;48.766;8.674;2024-01-30T12:07:02;3.35;;;1.80;;
10596;SDS011;5346;48.766;8.674;2024-01-30T12:09:30;4.85;;;1.80;;
10596;SDS011;5346;48.766;8.674;2024-01-30T12:12:11;1.77;;;1.48;;
10596;SDS011;5346;48.766;8.674;2024-01-30T12:14:41;2.00;;;1.80;;
10596;SDS011;5346;48.766;8.674;2024-01-30T12:17:29;2.97;;;1.73;;
10596;SDS011;5346;48.766;8.674;2024-01-30T12:20:08;2.15;;;1.50;;
10596;SDS011;5346;48.766;8.674;2024-01-30T12:22:45;1.77;;;1.60;;
10596;SDS011;5346;48.766;8.674;2024-01-30T12:25:21;2.90;;;1.80;;
10596;SDS011;5346;48.766;8.674;2024-01-30T12:27:50;1.90;;;1.70;;
10596;SDS011;5346;48.766;8.674;2024-01-30T12:30:24;1.95;;;1.60;;
10596;SDS011;5346;48.766;8.674;2024-01-30T12:32:52;4.30;;;2.05;;
10596;SDS011;5346;48.766;8.674;2024-01-30T12:35:26;2.05;;;1.70;;
10596;SDS011;5346;48.766;8.674;2024-01-30T12:37:58;3.70;;;1.90;;
10596;SDS011;5346;48.766;8.674;2024-01-30T12:40:33;2.65;;;1.70;;
10596;SDS011;5346;48.766;8.674;2024-01-30T12:43:02;4.80;;;1.70;;
10596;SDS011;5346;48.766;8.674;2024-01-30T12:45:37;2.97;;;1.80;;
10596;SDS011;5346;48.766;8.674;2024-01-30T12:48:11;2.03;;;1.73;;
10596;SDS011;5346;48.766;8.674;2024-01-30T12:50:45;2.05;;;1.75;;
10596;SDS011;5346;48.766;8.674;2024-01-30T12:53:19;1.70;;;1.60;;
10596;SDS011;5346;48.766;8.674;2024-01-30T12:55:53;5.32;;;1.75;;
10596;SDS011;5346;48.766;8.674;2024-01-30T12:58:21;3.85;;;1.90;;
10596;SDS011;5346;48.766;8.674;2024-01-30T13:00:55;1.85;;;1.65;;
10596;SDS011;5346;48.766;8.674;2024-01-30T13:03:29;3.03;;;1.77;;
10596;SDS011;5346;48.766;8.674;2024-01-30T13:06:04;2.08;;;1.77;;
10596;SDS011;5346;48.766;8.674;2024-01-30T13:08:32;3.95;;;1.92;;
10596;SDS011;5346;48.766;8.674;2024-01-30T13:11:06;2.15;;;1.73;;
10596;SDS011;5346;48.766;8.674;2024-01-30T13:13:48;1.75;;;1.65;;
10596;SDS011;5346;48.766;8.674;2024-01-30T13:16:16;3.92;;;1.80;;
10596;SDS011;5346;48.766;8.674;2024-01-30T13:18:51;2.33;;;1.83;;
10596;SDS011;5346;48.766;8.674;2024-01-30T13:21:28;2.70;;;1.75;;
10596;SDS011;5346;48.766;8.674;2024-01-30T13:24:03;3.95;;;1.83;;
10596;SDS011;5346;48.766;8.674;2024-01-30T13:26:38;1.98;;;1.67;;
10596;SDS011;5346;48.766;8.674;2024-01-30T13:29:12;2.88;;;1.63;;
10596;SDS011;5346;48.766;8.674;2024-01-30T13:31:39;3.20;;;1.80;;
10596;SDS011;5346;48.766;8.674;2024-01-30T13:34:14;2.92;;;1.50;;
10596;SDS011;5346;48.766;8.674;2024-01-30T13:36:48;2.97;;;1.70;;
10596;SDS011;5346;48.766;8.674;2024-01-30T13:39:15;3.45;;;2.00;;
10596;SDS011;5346;48.766;8.674;2024-01-30T13:41:58;4.30;;;2.60;;
10596;SDS011;5346;48.766;8.674;2024-01-30T13:44:26;4.63;;;2.90;;
10596;SDS011;5346;48.766;8.674;2024-01-30T13:47:01;5.15;;;2.58;;
10596;SDS011;5346;48.766;8.674;2024-01-30T13:49:29;2.63;;;2.20;;
10596;SDS011;5346;48.766;8.674;2024-01-30T13:52:03;4.65;;;2.95;;
10596;SDS011;5346;48.766;8.674;2024-01-30T13:54:33;3.53;;;2.47;;
10596;SDS011;5346;48.766;8.674;2024-01-30T13:57:08;4.72;;;2.45;;
10596;SDS011;5346;48.766;8.674;2024-01-30T13:59:43;2.90;;;2.30;;
10596;SDS011;5346;48.766;8.674;2024-01-30T14:02:11;3.30;;;2.40;;
10596;SDS011;5346;48.766;8.674;2024-01-30T14:04:46;3.00;;;2.50;;
10596;SDS011;5346;48.766;8.674;2024-01-30T14:07:14;3.65;;;2.55;;
10596;SDS011;5346;48.766;8.674;2024-01-30T14:09:48;3.60;;;2.65;;
10596;SDS011;5346;48.766;8.674;2024-01-30T14:12:28;4.65;;;2.58;;
10596;SDS011;5346;48.766;8.674;2024-01-30T14:15:03;4.07;;;2.88;;
10596;SDS011;5346;48.766;8.674;2024-01-30T14:17:52;4.70;;;2.70;;
10596;SDS011;5346;48.766;8.674;2024-01-30T14:20:20;3.95;;;2.70;;
10596;SDS011;5346;48.766;8.674;2024-01-30T14:22:55;4.45;;;3.00;;
10596;SDS011;5346;48.766;8.674;2024-01-30T14:25:30;3.65;;;2.78;;
10596;SDS011;5346;48.766;8.674;2024-01-30T14:28:04;3.45;;;2.75;;
10596;SDS011;5346;48.766;8.674;2024-01-30T14:30:33;4.15;;;2.78;;
10596;SDS011;5346;48.766;8.674;2024-01-30T14:33:11;2.97;;;2.67;;
10596;SDS011;5346;48.766;8.674;2024-01-30T14:35:38;4.85;;;2.78;;
10596;SDS011;5346;48.766;8.674;2024-01-30T14:38:13;4.47;;;2.90;;
10596;SDS011;5346;48.766;8.674;2024-01-30T14:40:41;3.22;;;2.45;;
10596;SDS011;5346;48.766;8.674;2024-01-30T14:43:16;4.50;;;2.78;;
10596;SDS011;5346;48.766;8.674;2024-01-30T14:45:44;4.45;;;2.78;;
10596;SDS011;5346;48.766;8.674;2024-01-30T14:48:20;2.97;;;2.13;;
10596;SDS011;5346;48.766;8.674;2024-01-30T14:50:48;4.53;;;2.80;;
10596;SDS011;5346;48.766;8.674;2024-01-30T14:53:22;5.90;;;3.17;;
10596;SDS011;5346;48.766;8.674;2024-01-30T14:55:56;6.03;;;3.08;;
10596;SDS011;5346;48.766;8.674;2024-01-30T14:58:23;4.32;;;2.90;;
10596;SDS011;5346;48.766;8.674;2024-01-30T15:00:58;14.38;;;4.03;;
10596;SDS011;5346;48.766;8.674;2024-01-30T15:03:27;5.22;;;3.10;;
10596;SDS011;5346;48.766;8.674;2024-01-30T15:06:04;5.35;;;2.90;;
10596;SDS011;5346;48.766;8.674;2024-01-30T15:08:39;3.50;;;2.75;;
10596;SDS011;5346;48.766;8.674;2024-01-30T15:11:13;3.90;;;2.90;;
10596;SDS011;5346;48.766;8.674;2024-01-30T15:13:47;5.88;;;3.00;;
10596;SDS011;5346;48.766;8.674;2024-01-30T15:16:21;4.40;;;2.53;;
10596;SDS011;5346;48.766;8.674;2024-01-30T15:18:55;5.68;;;2.60;;
10596;SDS011;5346;48.766;8.674;2024-01-30T15:21:29;4.75;;;2.72;;
10596;SDS011;5346;48.766;8.674;2024-01-30T15:24:04;8.25;;;3.60;;
10596;SDS011;5346;48.766;8.674;2024-01-30T15:26:32;5.95;;;2.88;;
10596;SDS011;5346;48.766;8.674;2024-01-30T15:29:06;3.97;;;2.33;;
10596;SDS011;5346;48.766;8.674;2024-01-30T15:31:33;3.50;;;2.38;;
10596;SDS011;5346;48.766;8.674;2024-01-30T15:34:14;6.38;;;2.58;;
10596;SDS011;5346;48.766;8.674;2024-01-30T15:36:42;4.13;;;2.13;;